Time;durP1;ratioP1;P1;durP2;ratioP2;P2;SDS_P1;SDS_P2;PMS_P1;PMS_P2;Temp;Humidity;BMP_temperature;BMP_pressure;BME280_temperature;BME280_humidity;BME280_pressure;Samples;Min_cycle;Max_cycle;Signal;HPM_P1;HPM_P2
2021/04/24 00:00:03;;;;;;;12.37;7.47;;;5.80;99.90;;;;;;5095048;28;20301;-55
2021/04/24 00:02:30;;;;;;;14.93;8.40;;;5.80;99.90;;;;;;5094774;28;20249;-55
2021/04/24 00:04:57;;;;;;;13.87;7.87;;;5.70;99.90;;;;;;5095151;28;20205;-56
2021/04/24 00:07:25;;;;;;;11.57;8.07;;;5.70;99.90;;;;;;5094843;28;20693;-57
2021/04/24 00:09:52;;;;;;;12.30;8.63;;;5.70;99.90;;;;;;5094593;28;20785;-56
2021/04/24 00:12:19;;;;;;;14.10;8.53;;;5.70;99.90;;;;;;5094905;28;20197;-56
2021/04/24 00:14:46;;;;;;;13.53;8.37;;;5.60;99.90;;;;;;5094255;28;20239;-56
2021/04/24 00:17:13;;;;;;;12.20;8.57;;;5.50;99.90;;;;;;5094623;28;20226;-57
2021/04/24 00:19:41;;;;;;;11.37;8.50;;;5.50;99.90;;;;;;5094633;28;20744;-58
2021/04/24 00:22:08;;;;;;;12.30;8.23;;;5.50;99.90;;;;;;5094710;28;20233;-58
2021/04/24 00:24:36;;;;;;;12.90;8.23;;;5.40;99.90;;;;;;5094255;28;20369;-56
2021/04/24 00:27:03;;;;;;;15.13;8.17;;;5.30;99.90;;;;;;5094653;28;20199;-55
2021/04/24 00:29:30;;;;;;;14.73;8.17;;;5.30;99.90;;;;;;5094421;28;20608;-54
2021/04/24 00:31:57;;;;;;;11.20;7.93;;;5.30;99.90;;;;;;5094427;28;20207;-55
2021/04/24 00:34:24;;;;;;;11.43;8.37;;;5.20;99.90;;;;;;5094593;28;20199;-59
2021/04/24 00:36:51;;;;;;;12.67;7.87;;;5.20;99.90;;;;;;5094394;28;20325;-58
2021/04/24 00:39:18;;;;;;;12.20;7.87;;;5.10;99.90;;;;;;5094520;28;20238;-59
2021/04/24 00:41:45;;;;;;;11.53;7.90;;;5.10;99.90;;;;;;5094157;28;20738;-58
2021/04/24 00:44:12;;;;;;;13.80;7.83;;;5.10;99.90;;;;;;5094287;28;20205;-58
2021/04/24 00:46:42;;;;;;;11.50;7.63;;;5.10;99.90;;;;;;5093841;28;20240;-58
2021/04/24 00:49:09;;;;;;;14.20;7.87;;;5.00;99.90;;;;;;5093956;28;20203;-58
2021/04/24 00:51:37;;;;;;;10.93;7.97;;;4.90;99.90;;;;;;5094171;28;20210;-58
2021/04/24 00:54:05;;;;;;;12.87;8.10;;;4.90;99.90;;;;;;5094082;28;20206;-58
2021/04/24 00:56:34;;;;;;;12.70;7.50;;;5.00;99.90;;;;;;5094025;28;20313;-59
2021/04/24 00:59:01;;;;;;;12.70;7.63;;;5.00;99.90;;;;;;5093511;28;20293;-58
2021/04/24 01:01:28;;;;;;;12.30;7.37;;;5.00;99.90;;;;;;5093444;28;20665;-57
2021/04/24 01:03:56;;;;;;;13.13;8.00;;;5.00;99.90;;;;;;5093769;28;20570;-59
2021/04/24 01:06:23;;;;;;;11.67;7.87;;;5.10;99.90;;;;;;5093940;28;20231;-58
2021/04/24 01:08:50;;;;;;;12.80;8.00;;;5.00;99.90;;;;;;5093399;28;20321;-59
2021/04/24 01:11:18;;;;;;;12.00;7.23;;;5.00;99.90;;;;;;5093641;28;20301;-59
2021/04/24 01:13:45;;;;;;;11.57;7.60;;;4.90;99.90;;;;;;5092813;28;20241;-59
2021/04/24 01:16:13;;;;;;;11.93;7.37;;;4.90;99.90;;;;;;5093513;28;20223;-59
2021/04/24 01:18:40;;;;;;;13.03;7.90;;;4.80;99.90;;;;;;5093280;28;20208;-57
2021/04/24 01:21:08;;;;;;;9.93;7.37;;;4.90;99.90;;;;;;5093651;28;20567;-58
2021/04/24 01:23:36;;;;;;;9.67;6.80;;;5.00;99.90;;;;;;5093718;28;20258;-58
2021/04/24 01:26:03;;;;;;;13.63;7.47;;;5.00;99.90;;;;;;5093661;28;20307;-59
2021/04/24 01:28:30;;;;;;;12.10;6.83;;;4.90;99.90;;;;;;5093515;28;20232;-59
2021/04/24 01:30:57;;;;;;;11.07;7.07;;;4.90;99.90;;;;;;5093069;28;20210;-59
2021/04/24 01:33:24;;;;;;;11.20;7.17;;;4.80;99.90;;;;;;5093134;28;20599;-59
2021/04/24 01:35:51;;;;;;;9.00;7.17;;;4.80;99.90;;;;;;5093197;28;20269;-59
2021/04/24 01:38:18;;;;;;;10.00;6.90;;;4.80;99.90;;;;;;5093392;28;20207;-60
2021/04/24 01:40:46;;;;;;;12.37;7.37;;;4.70;99.90;;;;;;5093235;28;20201;-59
2021/04/24 01:43:13;;;;;;;11.97;7.03;;;4.60;99.90;;;;;;5092973;28;20554;-59
2021/04/24 01:45:40;;;;;;;14.53;6.90;;;4.70;99.90;;;;;;5093047;28;20206;-59
2021/04/24 01:48:08;;;;;;;13.17;7.27;;;4.70;99.90;;;;;;5092863;28;20202;-59
2021/04/24 01:50:38;;;;;;;9.07;6.70;;;4.60;99.90;;;;;;5094110;28;20203;-59
2021/04/24 01:53:07;;;;;;;12.33;7.00;;;4.50;99.90;;;;;;5094641;28;20205;-59
2021/04/24 01:55:36;;;;;;;13.50;7.10;;;4.40;99.90;;;;;;5093152;28;20215;-59
2021/04/24 01:58:07;;;;;;;11.77;7.00;;;4.40;99.90;;;;;;5093067;28;20194;-59
2021/04/24 02:00:37;;;;;;;11.70;6.70;;;4.40;99.90;;;;;;5092949;28;20217;-56
2021/04/24 02:03:07;;;;;;;12.03;6.87;;;4.50;99.90;;;;;;5092864;28;20203;-55
2021/04/24 02:05:34;;;;;;;11.30;6.77;;;4.50;99.90;;;;;;5093036;28;20202;-56
2021/04/24 02:08:06;;;;;;;8.90;6.60;;;4.40;99.90;;;;;;5092897;28;20238;-57
2021/04/24 02:10:34;;;;;;;9.33;6.37;;;4.40;99.90;;;;;;5092559;28;20288;-56
2021/04/24 02:13:03;;;;;;;10.50;7.00;;;4.40;99.90;;;;;;5092623;28;20292;-56
2021/04/24 02:15:31;;;;;;;11.83;7.00;;;4.30;99.90;;;;;;5092336;28;20597;-57
2021/04/24 02:17:58;;;;;;;12.77;6.70;;;4.30;99.90;;;;;;5092473;28;20894;-52
2021/04/24 02:20:25;;;;;;;8.60;6.73;;;4.30;99.90;;;;;;5092590;28;20204;-56
2021/04/24 02:22:52;;;;;;;10.63;6.30;;;4.30;99.90;;;;;;5092820;28;20206;-54
2021/04/24 02:25:20;;;;;;;12.03;6.77;;;4.20;99.90;;;;;;5093092;28;20204;-56
2021/04/24 02:27:47;;;;;;;11.13;6.40;;;4.10;99.90;;;;;;5096687;28;20290;-53
2021/04/24 02:30:17;;;;;;;11.27;6.53;;;4.20;99.90;;;;;;5096754;28;20250;-58
2021/04/24 02:32:45;;;;;;;11.30;6.90;;;4.10;99.90;;;;;;5096661;28;20296;-55
2021/04/24 02:35:14;;;;;;;12.13;6.90;;;4.10;99.90;;;;;;5096501;28;20632;-57
2021/04/24 02:37:41;;;;;;;14.93;6.23;;;4.10;99.90;;;;;;5096454;28;20312;-55
2021/04/24 02:40:16;;;;;;;12.93;6.80;;;4.00;99.90;;;;;;5096718;28;20203;-53
2021/04/24 02:42:43;;;;;;;9.80;6.10;;;3.90;99.90;;;;;;5096708;28;20213;-57
2021/04/24 02:45:12;;;;;;;8.63;5.83;;;3.80;99.90;;;;;;5096020;28;20252;-55
2021/04/24 02:47:40;;;;;;;8.93;6.40;;;3.80;99.90;;;;;;5096425;28;20293;-55
2021/04/24 02:50:11;;;;;;;10.77;6.80;;;3.80;99.90;;;;;;5096252;28;20670;-55
2021/04/24 02:52:38;;;;;;;10.00;7.47;;;3.80;99.90;;;;;;5096500;28;20184;-55
2021/04/24 02:55:08;;;;;;;12.80;6.87;;;3.80;99.90;;;;;;5096301;28;20200;-56
2021/04/24 02:57:34;;;;;;;12.00;6.97;;;3.80;99.90;;;;;;5096204;28;20255;-53
2021/04/24 03:00:01;;;;;;;11.97;6.67;;;3.80;99.90;;;;;;5095678;28;20200;-55
2021/04/24 03:02:28;;;;;;;10.73;6.10;;;3.80;99.90;;;;;;5095623;28;20291;-56
2021/04/24 03:04:55;;;;;;;9.37;6.33;;;3.70;99.90;;;;;;5096092;28;20199;-55
2021/04/24 03:07:23;;;;;;;9.77;5.60;;;3.70;99.90;;;;;;5095801;28;20240;-57
2021/04/24 03:09:49;;;;;;;9.90;4.80;;;3.80;99.90;;;;;;5096042;28;20210;-55
2021/04/24 03:12:16;;;;;;;12.73;5.30;;;3.80;99.90;;;;;;5095854;28;20688;-58
2021/04/24 03:14:43;;;;;;;8.47;5.57;;;3.80;99.90;;;;;;5095614;28;20268;-58
2021/04/24 03:17:11;;;;;;;8.57;4.13;;;3.70;99.90;;;;;;5095692;28;20319;-55
2021/04/24 03:19:38;;;;;;;8.37;4.60;;;3.80;99.90;;;;;;5096164;28;20566;-55
2021/04/24 03:22:04;;;;;;;6.77;5.00;;;3.90;99.90;;;;;;5097626;28;20293;-54
2021/04/24 03:24:32;;;;;;;10.90;5.73;;;3.90;99.90;;;;;;5099205;28;20292;-54
2021/04/24 03:26:59;;;;;;;9.20;5.27;;;3.80;99.90;;;;;;5099016;28;20196;-56
2021/04/24 03:29:26;;;;;;;8.63;4.97;;;3.80;99.90;;;;;;5096793;28;20289;-57
2021/04/24 03:31:53;;;;;;;8.40;5.27;;;3.80;99.90;;;;;;5095982;28;20195;-55
2021/04/24 03:34:20;;;;;;;8.93;4.80;;;3.70;99.90;;;;;;5095932;28;20205;-55
2021/04/24 03:36:47;;;;;;;6.77;4.87;;;3.90;99.90;;;;;;5094741;28;20693;-57
2021/04/24 03:39:14;;;;;;;9.17;4.70;;;3.80;99.90;;;;;;5095800;28;20292;-56
2021/04/24 03:41:42;;;;;;;11.40;5.10;;;3.90;99.90;;;;;;5095537;28;20201;-57
2021/04/24 03:44:08;;;;;;;9.43;5.10;;;3.80;99.90;;;;;;5095700;28;20229;-57
2021/04/24 03:46:35;;;;;;;9.20;5.30;;;3.80;99.90;;;;;;5095507;28;20202;-55
2021/04/24 03:49:03;;;;;;;11.93;5.77;;;3.70;99.90;;;;;;5095139;28;20303;-56
2021/04/24 03:51:30;;;;;;;11.13;6.10;;;3.70;99.90;;;;;;5094602;28;20679;-57
2021/04/24 03:53:57;;;;;;;11.10;5.87;;;3.70;99.90;;;;;;5095218;28;20666;-55
2021/04/24 03:56:24;;;;;;;9.13;6.03;;;3.60;99.90;;;;;;5095231;28;20311;-56
2021/04/24 03:58:51;;;;;;;13.50;6.30;;;3.60;99.90;;;;;;5094930;28;20227;-56
2021/04/24 04:01:18;;;;;;;11.53;5.80;;;3.60;99.90;;;;;;5094959;28;20307;-56
2021/04/24 04:03:45;;;;;;;8.73;5.60;;;3.60;99.90;;;;;;5095169;28;20290;-55
2021/04/24 04:06:12;;;;;;;9.37;5.73;;;3.50;99.90;;;;;;5095800;28;20206;-55
2021/04/24 04:08:39;;;;;;;9.73;5.83;;;3.50;99.90;;;;;;5094918;28;20235;-55
2021/04/24 04:11:06;;;;;;;9.23;5.33;;;3.50;99.90;;;;;;5094993;28;20214;-57
2021/04/24 04:13:33;;;;;;;10.40;5.67;;;3.50;99.90;;;;;;5094755;28;20234;-55
2021/04/24 04:16:01;;;;;;;14.73;6.17;;;3.50;99.90;;;;;;5094316;28;20763;-57
2021/04/24 04:18:28;;;;;;;11.10;6.10;;;3.60;99.90;;;;;;5094175;28;20299;-54
2021/04/24 04:20:55;;;;;;;8.57;5.50;;;3.80;99.90;;;;;;5094678;28;20205;-58
2021/04/24 04:23:23;;;;;;;9.07;5.57;;;3.90;99.90;;;;;;5094634;28;20208;-55
2021/04/24 04:25:51;;;;;;;8.93;5.37;;;4.00;99.90;;;;;;5094779;28;20211;-59
2021/04/24 04:28:19;;;;;;;7.30;5.37;;;4.10;99.90;;;;;;5094638;28;20259;-58
2021/04/24 04:30:47;;;;;;;8.93;5.80;;;4.30;99.90;;;;;;5094511;28;20230;-59
2021/04/24 04:33:15;;;;;;;10.00;5.97;;;4.30;99.90;;;;;;5094168;28;20301;-60
2021/04/24 04:35:43;;;;;;;10.60;6.00;;;4.40;99.90;;;;;;5094167;28;20665;-59
2021/04/24 04:38:10;;;;;;;12.33;6.23;;;4.70;99.90;;;;;;5094502;28;20629;-59
2021/04/24 04:40:37;;;;;;;9.03;5.27;;;4.80;99.90;;;;;;5094281;28;20676;-59
2021/04/24 04:43:05;;;;;;;10.50;6.10;;;4.80;99.90;;;;;;5094329;28;20291;-59
2021/04/24 04:45:33;;;;;;;11.33;5.70;;;4.90;99.90;;;;;;5094025;28;20649;-60
2021/04/24 04:48:00;;;;;;;9.33;5.63;;;4.90;99.90;;;;;;5093454;28;20285;-60
2021/04/24 04:50:31;;;;;;;11.23;5.70;;;5.00;99.90;;;;;;5094072;28;20206;-58
2021/04/24 04:52:59;;;;;;;10.97;6.07;;;5.00;99.90;;;;;;5094237;28;20185;-59
2021/04/24 04:55:27;;;;;;;12.80;5.70;;;5.10;99.90;;;;;;5094270;28;20205;-59
2021/04/24 04:57:54;;;;;;;8.97;5.30;;;5.20;99.90;;;;;;5081419;28;20297;-58
2021/04/24 05:00:22;;;;;;;11.93;5.30;;;5.40;99.90;;;;;;5073337;28;20527;-59
2021/04/24 05:02:50;;;;;;;10.53;5.30;;;5.40;99.90;;;;;;5073718;28;20287;-61
2021/04/24 05:05:18;;;;;;;7.83;5.33;;;5.50;99.90;;;;;;5073828;28;20203;-60
2021/04/24 05:07:48;;;;;;;11.10;5.40;;;5.60;99.90;;;;;;5073425;28;20668;-59
2021/04/24 05:10:23;;;;;;;10.37;5.47;;;5.80;99.90;;;;;;5088455;28;20732;-59
2021/04/24 05:12:51;;;;;;;9.63;5.00;;;5.90;99.90;;;;;;5093906;28;20259;-57
2021/04/24 05:15:19;;;;;;;8.63;5.03;;;6.00;99.90;;;;;;5093166;28;20288;-58
2021/04/24 05:17:46;;;;;;;9.40;5.10;;;6.00;99.90;;;;;;5093628;28;20558;-59
2021/04/24 05:20:14;;;;;;;8.50;5.50;;;6.00;99.90;;;;;;5093755;28;20207;-59
2021/04/24 05:22:43;;;;;;;7.93;5.13;;;6.20;99.90;;;;;;5093414;28;20242;-58
2021/04/24 05:25:12;;;;;;;9.40;5.43;;;6.40;99.90;;;;;;5093356;28;20296;-57
2021/04/24 05:27:43;;;;;;;11.47;5.53;;;6.60;99.90;;;;;;5093594;28;20247;-54
2021/04/24 05:30:12;;;;;;;10.20;5.70;;;6.80;99.90;;;;;;5093106;28;20618;-56
2021/04/24 05:32:39;;;;;;;9.47;5.20;;;6.90;99.90;;;;;;5093151;28;20265;-57
2021/04/24 05:35:07;;;;;;;7.93;4.83;;;7.00;99.90;;;;;;5093075;28;20227;-55
2021/04/24 05:37:34;;;;;;;9.70;4.73;;;7.10;99.90;;;;;;5093378;28;20301;-56
2021/04/24 05:40:00;;;;;;;9.07;5.43;;;7.20;99.90;;;;;;5093118;28;20291;-56
2021/04/24 05:42:32;;;;;;;10.57;5.40;;;7.20;99.90;;;;;;5093453;28;20202;-55
2021/04/24 05:44:59;;;;;;;12.40;5.60;;;7.40;99.90;;;;;;5093212;28;20231;-56
2021/04/24 05:47:25;;;;;;;10.60;5.50;;;7.50;99.90;;;;;;5092991;28;20196;-59
2021/04/24 05:49:53;;;;;;;11.20;5.80;;;7.40;99.90;;;;;;5093085;28;20221;-60
2021/04/24 05:52:20;;;;;;;9.03;5.57;;;7.40;99.90;;;;;;5093014;28;20210;-59
2021/04/24 05:54:47;;;;;;;11.17;6.10;;;7.30;99.90;;;;;;5092649;28;20246;-59
2021/04/24 05:57:13;;;;;;;13.90;6.23;;;7.40;99.90;;;;;;5092812;28;20658;-59
2021/04/24 05:59:41;;;;;;;10.20;5.87;;;7.60;99.90;;;;;;5092873;28;20301;-59
2021/04/24 06:02:08;;;;;;;13.93;6.60;;;7.70;99.90;;;;;;5092592;28;20206;-59
2021/04/24 06:04:35;;;;;;;12.27;6.00;;;7.70;99.90;;;;;;5092864;28;20246;-58
2021/04/24 06:07:02;;;;;;;12.73;6.43;;;7.40;99.90;;;;;;5092581;28;20200;-61
2021/04/24 06:09:29;;;;;;;13.63;6.87;;;7.30;99.90;;;;;;5092696;28;20211;-58
2021/04/24 06:11:56;;;;;;;11.50;6.63;;;7.30;99.90;;;;;;5092445;28;20242;-59
2021/04/24 06:14:23;;;;;;;12.13;6.70;;;7.40;99.90;;;;;;5089379;28;20231;-59
2021/04/24 06:16:51;;;;;;;11.10;6.60;;;7.50;99.90;;;;;;5097160;28;20787;-60
2021/04/24 06:19:19;;;;;;;12.70;6.57;;;7.60;99.90;;;;;;5111787;28;20214;-58
2021/04/24 06:21:46;;;;;;;12.83;6.90;;;7.80;99.90;;;;;;5112954;28;20301;-58
2021/04/24 06:24:13;;;;;;;12.97;6.50;;;7.80;99.90;;;;;;5113169;28;20297;-58
2021/04/24 06:26:40;;;;;;;13.60;7.07;;;7.90;99.90;;;;;;5113048;28;20293;-58
2021/04/24 06:29:06;;;;;;;14.63;6.90;;;7.90;99.90;;;;;;5112842;28;20298;-58
2021/04/24 06:31:37;;;;;;;9.77;6.87;;;8.00;99.90;;;;;;5112857;28;20592;-59
2021/04/24 06:34:05;;;;;;;11.13;7.57;;;8.20;99.90;;;;;;5112458;28;20638;-58
2021/04/24 06:36:32;;;;;;;10.37;6.80;;;8.10;99.90;;;;;;5112965;28;20223;-58
2021/04/24 06:39:04;;;;;;;13.73;6.63;;;8.20;99.90;;;;;;5112711;28;20294;-59
2021/04/24 06:41:31;;;;;;;12.70;7.17;;;8.20;99.90;;;;;;5112925;28;20215;-59
2021/04/24 06:43:58;;;;;;;17.13;7.63;;;8.30;99.90;;;;;;5112122;28;20948;-57
2021/04/24 06:46:25;;;;;;;11.20;6.93;;;8.30;99.90;;;;;;5112499;28;20325;-58
2021/04/24 06:48:52;;;;;;;13.70;7.40;;;8.10;99.90;;;;;;5112497;28;20268;-59
2021/04/24 06:51:20;;;;;;;11.47;6.43;;;8.10;99.90;;;;;;5112525;28;20687;-60
2021/04/24 06:53:47;;;;;;;13.03;6.83;;;8.20;99.90;;;;;;5112146;28;20203;-59
2021/04/24 06:56:14;;;;;;;12.93;7.17;;;8.40;99.90;;;;;;5112435;28;20678;-56
2021/04/24 06:58:41;;;;;;;12.20;7.00;;;8.50;99.90;;;;;;5096190;28;20203;-57
2021/04/24 07:01:07;;;;;;;14.17;7.60;;;8.70;99.90;;;;;;5092371;28;20298;-59
2021/04/24 07:03:36;;;;;;;11.43;6.70;;;8.90;99.90;;;;;;5091947;28;20234;-55
2021/04/24 07:06:04;;;;;;;12.30;6.87;;;9.00;99.90;;;;;;5092182;28;20253;-62
2021/04/24 07:08:32;;;;;;;11.27;6.40;;;9.20;99.90;;;;;;5091914;28;20633;-60
2021/04/24 07:10:59;;;;;;;13.90;7.20;;;9.30;99.90;;;;;;5092140;28;20288;-58
2021/04/24 07:13:26;;;;;;;10.70;7.30;;;9.50;99.90;;;;;;5095627;28;20638;-59
2021/04/24 07:15:53;;;;;;;12.23;6.90;;;9.70;99.90;;;;;;5095743;28;20191;-57
2021/04/24 07:18:19;;;;;;;11.47;6.30;;;9.80;99.90;;;;;;5095167;28;20216;-60
2021/04/24 07:20:50;;;;;;;10.97;6.93;;;9.70;99.90;;;;;;5095804;28;20573;-59
2021/04/24 07:23:17;;;;;;;10.63;6.60;;;9.70;99.90;;;;;;5095744;28;20235;-60
2021/04/24 07:25:44;;;;;;;12.30;6.90;;;9.50;99.90;;;;;;5095786;28;20551;-60
2021/04/24 07:28:11;;;;;;;10.33;7.27;;;9.40;99.90;;;;;;5095750;28;20203;-59
2021/04/24 07:30:38;;;;;;;9.70;6.27;;;9.50;99.90;;;;;;5095550;28;20206;-59
2021/04/24 07:33:05;;;;;;;10.90;6.67;;;9.50;99.90;;;;;;5095347;28;20195;-60
2021/04/24 07:35:32;;;;;;;11.87;6.80;;;9.50;99.90;;;;;;5095509;28;20199;-61
2021/04/24 07:37:59;;;;;;;13.47;6.73;;;9.50;99.90;;;;;;5095424;28;20223;-59
2021/04/24 07:40:26;;;;;;;10.50;6.07;;;9.20;99.90;;;;;;5095362;28;20195;-58
2021/04/24 07:42:54;;;;;;;9.90;6.70;;;9.40;99.90;;;;;;5097155;28;20204;-60
2021/04/24 07:45:21;;;;;;;9.67;6.03;;;9.60;99.90;;;;;;5099839;28;20825;-60
2021/04/24 07:47:48;;;;;;;9.33;5.97;;;9.40;99.90;;;;;;5099264;28;20193;-61
2021/04/24 07:50:18;;;;;;;12.97;7.40;;;9.40;99.90;;;;;;5096652;28;20281;-60
2021/04/24 07:52:45;;;;;;;11.07;6.57;;;9.50;99.90;;;;;;5095811;28;20239;-59
2021/04/24 07:55:13;;;;;;;8.20;6.40;;;9.90;99.90;;;;;;5095189;28;20206;-60
2021/04/24 07:57:40;;;;;;;10.63;6.27;;;9.90;99.90;;;;;;5095311;28;20577;-59
2021/04/24 08:00:09;;;;;;;9.00;6.23;;;10.10;99.90;;;;;;5095171;28;20239;-60
2021/04/24 08:02:37;;;;;;;9.77;6.23;;;10.30;99.90;;;;;;5095012;28;20196;-60
2021/04/24 08:05:04;;;;;;;11.97;6.57;;;10.30;99.90;;;;;;5094627;28;20651;-60
2021/04/24 08:07:48;;;;;;;10.57;6.67;;;10.00;99.90;;;;;;5095009;28;20298;-60
2021/04/24 08:10:15;;;;;;;10.13;6.00;;;9.80;99.90;;;;;;5094687;28;20200;-60
2021/04/24 08:12:42;;;;;;;9.13;6.63;;;9.70;99.90;;;;;;5095104;28;20223;-63
2021/04/24 08:15:11;;;;;;;8.67;5.63;;;9.60;99.90;;;;;;5094647;28;20231;-60
2021/04/24 08:17:38;;;;;;;9.33;6.30;;;9.70;99.90;;;;;;5094656;28;20311;-61
2021/04/24 08:20:07;;;;;;;8.27;5.60;;;9.70;99.90;;;;;;5094568;28;20204;-61
2021/04/24 08:22:34;;;;;;;9.00;5.03;;;9.70;99.90;;;;;;5094746;28;20200;-59
2021/04/24 08:25:02;;;;;;;7.20;4.67;;;10.00;99.90;;;;;;5095228;28;20200;-61
2021/04/24 08:27:29;;;;;;;9.20;5.27;;;10.20;99.90;;;;;;5094497;28;20727;-61
2021/04/24 08:29:55;;;;;;;8.00;4.70;;;10.30;99.90;;;;;;5094460;28;20200;-61
2021/04/24 08:32:24;;;;;;;9.00;5.13;;;10.20;99.90;;;;;;5094419;28;20331;-61
2021/04/24 08:34:51;;;;;;;11.43;5.13;;;10.00;99.90;;;;;;5094249;28;20211;-60
2021/04/24 08:37:18;;;;;;;7.67;4.73;;;10.00;99.90;;;;;;5094028;28;20605;-61
2021/04/24 08:39:45;;;;;;;8.70;5.30;;;10.20;99.90;;;;;;5094251;28;20211;-59
2021/04/24 08:42:14;;;;;;;8.13;5.27;;;10.40;99.90;;;;;;5094082;28;20258;-60
2021/04/24 08:44:42;;;;;;;6.43;4.90;;;10.50;99.90;;;;;;5094209;28;20223;-59
2021/04/24 08:47:10;;;;;;;8.50;5.07;;;10.60;99.90;;;;;;5093976;28;20223;-59
2021/04/24 08:49:41;;;;;;;6.37;4.40;;;10.90;99.90;;;;;;5094005;28;20295;-61
2021/04/24 08:52:08;;;;;;;7.60;4.73;;;11.10;99.90;;;;;;5094179;28;20184;-62
2021/04/24 08:54:35;;;;;;;6.50;4.60;;;11.40;99.90;;;;;;5094039;28;20211;-60
2021/04/24 08:57:02;;;;;;;8.10;4.63;;;11.40;99.90;;;;;;5093830;28;20216;-59
2021/04/24 08:59:29;;;;;;;7.97;4.67;;;11.30;99.90;;;;;;5093902;28;20235;-61
2021/04/24 09:01:56;;;;;;;6.57;4.70;;;11.10;99.90;;;;;;5093692;28;20234;-59
2021/04/24 09:04:22;;;;;;;7.33;5.07;;;11.10;99.90;;;;;;5093417;28;20200;-61
2021/04/24 09:06:50;;;;;;;7.77;5.00;;;11.40;99.90;;;;;;5093773;28;20295;-59
2021/04/24 09:09:25;;;;;;;7.60;5.10;;;11.60;99.90;;;;;;5093270;28;20294;-64
2021/04/24 09:11:56;;;;;;;6.33;4.73;;;11.80;99.90;;;;;;5093689;28;20270;-59
2021/04/24 09:14:26;;;;;;;6.80;5.13;;;11.90;99.90;;;;;;5093186;28;20278;-60
2021/04/24 09:16:54;;;;;;;7.17;4.80;;;12.10;99.90;;;;;;5093292;28;20204;-59
2021/04/24 09:19:28;;;;;;;9.70;5.50;;;12.40;99.90;;;;;;5092857;28;20204;-59
2021/04/24 09:22:14;;;;;;;10.10;5.43;;;12.40;99.90;;;;;;5093235;28;20186;-60
2021/04/24 09:24:42;;;;;;;7.13;4.90;;;11.50;99.90;;;;;;5093189;28;20215;-56
2021/04/24 09:27:09;;;;;;;9.57;4.90;;;11.30;99.90;;;;;;5093041;28;20239;-60
2021/04/24 09:29:50;;;;;;;8.17;4.90;;;11.30;99.90;;;;;;5092997;28;20279;-60
2021/04/24 09:32:18;;;;;;;6.87;4.57;;;11.50;99.90;;;;;;5092681;28;20291;-60
2021/04/24 09:34:47;;;;;;;7.77;4.60;;;11.90;99.90;;;;;;5092546;28;20283;-59
2021/04/24 09:37:16;;;;;;;8.50;5.00;;;12.30;99.90;;;;;;5092618;28;20230;-60
2021/04/24 09:39:48;;;;;;;6.80;4.83;;;12.20;99.90;;;;;;5092987;28;20214;-60
2021/04/24 09:42:35;;;;;;;7.73;5.00;;;12.40;99.90;;;;;;5092591;28;20812;-60
2021/04/24 09:45:08;;;;;;;6.77;4.70;;;12.60;99.90;;;;;;5092776;28;20290;-57
2021/04/24 09:47:40;;;;;;;7.27;5.23;;;12.70;99.90;;;;;;5085717;27;20307;-58
2021/04/24 09:50:16;;;;;;;8.53;5.00;;;12.60;99.90;;;;;;5072094;28;20216;-59
2021/04/24 09:52:44;;;;;;;7.07;5.03;;;12.80;99.90;;;;;;5072640;28;20189;-60
2021/04/24 09:55:16;;;;;;;6.53;4.57;;;13.00;99.90;;;;;;5072440;28;20203;-59
2021/04/24 09:57:43;;;;;;;6.03;5.00;;;13.20;99.90;;;;;;5072231;28;20573;-60
2021/04/24 10:00:16;;;;;;;6.57;4.50;;;13.30;99.90;;;;;;5072375;28;20200;-60
2021/04/24 10:02:45;;;;;;;8.83;5.27;;;13.20;99.90;;;;;;5072384;28;20197;-59
2021/04/24 10:05:15;;;;;;;7.03;4.37;;;13.10;99.90;;;;;;5072130;28;20204;-60
2021/04/24 10:07:45;;;;;;;6.37;4.93;;;12.80;99.90;;;;;;5072326;28;20184;-60
2021/04/24 10:10:14;;;;;;;7.60;4.87;;;12.80;99.90;;;;;;5072166;28;20207;-60
2021/04/24 10:12:52;;;;;;;7.57;4.83;;;12.90;99.90;;;;;;5072316;28;20197;-60
2021/04/24 10:15:34;;;;;;;7.13;4.67;;;12.90;99.90;;;;;;5072157;28;20315;-61
2021/04/24 10:18:02;;;;;;;7.33;4.73;;;12.70;99.90;;;;;;5072069;28;20966;-60
2021/04/24 10:20:29;;;;;;;7.60;4.80;;;12.60;99.90;;;;;;5072279;28;20204;-55
2021/04/24 10:22:58;;;;;;;7.27;4.43;;;12.60;99.90;;;;;;5072339;28;20200;-57
2021/04/24 10:25:25;;;;;;;8.23;4.80;;;12.50;99.90;;;;;;5072308;28;20288;-61
2021/04/24 10:27:52;;;;;;;7.20;4.73;;;12.30;99.90;;;;;;5072364;28;20254;-57
2021/04/24 10:30:20;;;;;;;7.73;4.50;;;12.20;99.90;;;;;;5072481;28;20247;-58
2021/04/24 10:32:47;;;;;;;6.90;4.80;;;12.30;99.90;;;;;;5073213;28;20292;-60
2021/04/24 10:35:15;;;;;;;9.77;5.00;;;12.30;99.90;;;;;;5070369;28;20295;-60
2021/04/24 10:37:45;;;;;;;10.20;4.87;;;12.50;99.90;;;;;;5072114;28;20775;-60
2021/04/24 10:40:13;;;;;;;6.80;5.27;;;12.80;99.90;;;;;;5072387;28;20296;-61
2021/04/24 10:42:43;;;;;;;7.60;4.80;;;13.00;99.90;;;;;;5072032;28;20660;-60
2021/04/24 10:45:12;;;;;;;7.17;5.10;;;12.80;99.90;;;;;;5072005;28;20649;-60
2021/04/24 10:47:52;;;;;;;7.70;4.97;;;12.80;99.90;;;;;;5074232;28;20196;-60
2021/04/24 10:50:21;;;;;;;8.27;5.27;;;12.90;99.90;;;;;;5075982;28;20202;-60
2021/04/24 10:52:51;;;;;;;5.90;4.00;;;13.10;99.90;;;;;;5076035;28;20197;-60
2021/04/24 10:55:27;;;;;;;5.33;3.93;;;13.10;99.90;;;;;;5075986;28;20216;-61
2021/04/24 10:57:57;;;;;;;10.90;4.83;;;13.20;99.90;;;;;;5075875;28;20204;-62
2021/04/24 11:00:47;;;;;;;6.90;4.90;;;13.30;99.90;;;;;;5075514;28;20205;-61
2021/04/24 11:03:38;;;;;;;6.93;4.43;;;13.40;99.90;;;;;;5074759;28;20232;-61
2021/04/24 11:06:10;;;;;;;7.07;4.27;;;13.10;99.90;;;;;;5075412;28;20270;-58
2021/04/24 11:08:37;;;;;;;5.53;3.83;;;13.10;99.90;;;;;;5075291;28;20288;-57
2021/04/24 11:11:07;;;;;;;6.63;4.43;;;12.90;99.90;;;;;;5075454;28;20295;-58
2021/04/24 11:13:37;;;;;;;5.60;4.17;;;12.70;99.90;;;;;;5075362;28;20604;-59
2021/04/24 11:16:08;;;;;;;6.47;4.47;;;12.90;99.90;;;;;;5075409;28;20841;-58
2021/04/24 11:18:37;;;;;;;6.83;4.60;;;13.00;99.90;;;;;;5074974;28;20600;-60
2021/04/24 11:21:06;;;;;;;5.87;4.20;;;12.90;99.90;;;;;;5075332;28;20232;-57
2021/04/24 11:23:55;;;;;;;6.90;4.30;;;12.60;99.90;;;;;;5075351;28;20209;-60
2021/04/24 11:26:46;;;;;;;5.93;4.00;;;12.40;99.90;;;;;;5075193;28;20251;-61
2021/04/24 11:29:14;;;;;;;5.30;3.77;;;12.70;99.90;;;;;;5075317;28;20185;-60
2021/04/24 11:31:59;;;;;;;4.60;3.97;;;12.90;99.90;;;;;;5075082;28;20860;-59
2021/04/24 11:34:33;;;;;;;7.53;3.73;;;12.70;99.90;;;;;;5074922;28;20610;-60
2021/04/24 11:37:31;;;;;;;5.53;3.87;;;12.90;99.90;;;;;;5074803;28;20275;-60
2021/04/24 11:40:28;;;;;;;4.97;3.57;;;12.80;99.90;;;;;;5058472;28;20210;-59
2021/04/24 11:43:04;;;;;;;5.00;3.97;;;13.00;99.90;;;;;;5054983;28;20236;-60
2021/04/24 11:46:05;;;;;;;4.70;3.60;;;12.80;99.90;;;;;;5055031;28;20182;-60
2021/04/24 11:49:01;;;;;;;5.77;3.70;;;12.80;99.90;;;;;;5054712;28;20272;-60
2021/04/24 11:51:30;;;;;;;4.53;3.50;;;12.80;99.90;;;;;;5055660;28;20194;-60
2021/04/24 11:54:04;;;;;;;6.47;3.60;;;12.80;99.90;;;;;;5055776;28;20583;-59
2021/04/24 11:56:31;;;;;;;5.37;3.30;;;12.70;99.90;;;;;;5055876;28;20247;-60
2021/04/24 11:58:59;;;;;;;6.03;3.53;;;12.70;99.90;;;;;;5054290;28;20221;-60
2021/04/24 12:01:28;;;;;;;6.57;4.20;;;12.60;99.90;;;;;;5054260;28;20228;-58
2021/04/24 12:03:55;;;;;;;4.60;3.50;;;12.50;99.90;;;;;;5054189;28;20201;-60
2021/04/24 12:06:36;;;;;;;6.57;4.10;;;12.30;99.90;;;;;;5054580;28;20252;-60
2021/04/24 12:09:05;;;;;;;4.80;3.07;;;12.20;99.90;;;;;;5064614;28;20213;-60
2021/04/24 12:11:32;;;;;;;6.13;3.23;;;12.20;99.90;;;;;;5074188;28;20209;-59
2021/04/24 12:14:00;;;;;;;4.37;3.13;;;11.90;99.90;;;;;;5074132;28;20235;-60
2021/04/24 12:16:48;;;;;;;4.83;3.17;;;12.00;99.90;;;;;;5073888;28;20299;-59
2021/04/24 12:19:27;;;;;;;5.30;3.20;;;12.30;99.90;;;;;;5069251;28;20312;-54
2021/04/24 12:22:12;;;;;;;5.10;3.20;;;12.60;99.90;;;;;;5074669;28;20387;-52
2021/04/24 12:25:01;;;;;;;6.13;3.30;;;12.80;99.90;;;;;;5074388;28;20272;-54
2021/04/24 12:27:33;;;;;;;4.77;3.20;;;12.60;99.90;;;;;;5074219;28;20263;-53
2021/04/24 12:30:04;;;;;;;3.30;2.93;;;12.40;99.90;;;;;;5073964;28;20280;-55
2021/04/24 12:32:35;;;;;;;7.87;3.87;;;12.20;99.90;;;;;;5073851;28;20213;-54
2021/04/24 12:35:11;;;;;;;6.43;3.70;;;12.00;99.90;;;;;;5074026;28;20235;-59
2021/04/24 12:37:39;;;;;;;5.37;3.70;;;11.90;99.90;;;;;;5074081;28;20208;-61
2021/04/24 12:40:13;;;;;;;5.50;3.53;;;11.80;99.90;;;;;;5073607;28;20200;-60
2021/04/24 12:42:40;;;;;;;6.20;3.90;;;11.60;99.90;;;;;;5073609;28;20216;-60
2021/04/24 12:45:17;;;;;;;5.43;4.33;;;11.80;99.90;;;;;;5073311;28;20195;-59
2021/04/24 12:47:47;;;;;;;7.57;3.97;;;11.90;99.90;;;;;;5073072;28;20724;-60
2021/04/24 12:50:22;;;;;;;6.03;3.70;;;12.10;99.90;;;;;;5073258;28;20785;-59
2021/04/24 12:52:52;;;;;;;4.97;3.73;;;12.40;99.90;;;;;;5073552;28;20271;-59
2021/04/24 12:55:19;;;;;;;4.97;3.77;;;12.50;99.90;;;;;;5073830;28;20185;-59
2021/04/24 12:57:53;;;;;;;7.03;3.80;;;12.50;99.90;;;;;;5073489;28;20307;-60